sensor_id;sensor_type;location;lat;lon;timestamp;pressure;altitude;pressure_sealevel;temperature;humidity
17450;BME280;8842;51.244;7.102;2022-09-09T00:06:48;98725.77;;;16.25;100.00
17450;BME280;8842;51.244;7.102;2022-09-09T00:11:54;98720.95;;;16.05;100.00
17450;BME280;8842;51.244;7.102;2022-09-09T00:22:17;98709.74;;;16.05;100.00
17450;BME280;8842;51.244;7.102;2022-09-09T00:32:34;98701.20;;;15.93;100.00
17450;BME280;8842;51.244;7.102;2022-09-09T00:37:39;98699.38;;;15.86;100.00
17450;BME280;8842;51.244;7.102;2022-09-09T00:47:56;98694.69;;;15.80;100.00
17450;BME280;8842;51.244;7.102;2022-09-09T01:04:01;98693.02;;;15.91;100.00
17450;BME280;8842;51.244;7.102;2022-09-09T01:09:16;98700.05;;;15.88;100.00
17450;BME280;8842;51.244;7.102;2022-09-09T01:20:02;98689.63;;;16.09;100.00
17450;BME280;8842;51.244;7.102;2022-09-09T01:30:27;98688.95;;;16.15;100.00
17450;BME280;8842;51.244;7.102;2022-09-09T01:40:47;98695.14;;;16.12;100.00
17450;BME280;8842;51.244;7.102;2022-09-09T01:45:54;98696.36;;;15.97;100.00
17450;BME280;8842;51.244;7.102;2022-09-09T01:56:20;98689.81;;;15.99;100.00
17450;BME280;8842;51.244;7.102;2022-09-09T02:06:38;98694.34;;;15.95;100.00
17450;BME280;8842;51.244;7.102;2022-09-09T02:16:59;98683.66;;;15.87;100.00
17450;BME280;8842;51.244;7.102;2022-09-09T02:27:16;98690.05;;;15.74;100.00
17450;BME280;8842;51.244;7.102;2022-09-09T02:37:37;98696.88;;;15.68;100.00
17450;BME280;8842;51.244;7.102;2022-09-09T02:47:59;98701.23;;;15.65;100.00
17450;BME280;8842;51.244;7.102;2022-09-09T02:58:18;98694.73;;;15.68;100.00
17450;BME280;8842;51.244;7.102;2022-09-09T03:08:34;98684.17;;;15.62;100.00
17450;BME280;8842;51.244;7.102;2022-09-09T03:13:39;98687.03;;;15.57;100.00
17450;BME280;8842;51.244;7.102;2022-09-09T03:24:00;98678.67;;;15.56;100.00
17450;BME280;8842;51.244;7.102;2022-09-09T03:34:17;98673.14;;;15.49;100.00
17450;BME280;8842;51.244;7.102;2022-09-09T03:44:34;98667.95;;;15.48;100.00
17450;BME280;8842;51.244;7.102;2022-09-09T03:54:51;98682.35;;;15.47;100.00
17450;BME280;8842;51.244;7.102;2022-09-09T04:05:08;98673.16;;;15.45;100.00
17450;BME280;8842;51.244;7.102;2022-09-09T04:15:33;98672.98;;;15.51;100.00
17450;BME280;8842;51.244;7.102;2022-09-09T04:25:51;98678.00;;;15.50;100.00
17450;BME280;8842;51.244;7.102;2022-09-09T04:36:09;98677.67;;;15.53;100.00
17450;BME280;8842;51.244;7.102;2022-09-09T04:46:25;98672.64;;;15.54;100.00
17450;BME280;8842;51.244;7.102;2022-09-09T04:56:40;98682.66;;;15.64;100.00
17450;BME280;8842;51.244;7.102;2022-09-09T05:06:56;98675.65;;;15.63;100.00
17450;BME280;8842;51.244;7.102;2022-09-09T05:12:01;98687.34;;;15.58;100.00
17450;BME280;8842;51.244;7.102;2022-09-09T05:22:23;98679.32;;;15.58;100.00
17450;BME280;8842;51.244;7.102;2022-09-09T05:32:40;98682.52;;;15.57;100.00
17450;BME280;8842;51.244;7.102;2022-09-09T05:37:47;98671.98;;;15.56;100.00
17450;BME280;8842;51.244;7.102;2022-09-09T05:48:03;98658.23;;;15.67;100.00
17450;BME280;8842;51.244;7.102;2022-09-09T05:58:20;98673.14;;;15.69;100.00
17450;BME280;8842;51.244;7.102;2022-09-09T06:08:41;98685.70;;;15.65;100.00
17450;BME280;8842;51.244;7.102;2022-09-09T06:13:46;98690.70;;;15.60;100.00
17450;BME280;8842;51.244;7.102;2022-09-09T06:24:05;98692.70;;;15.70;100.00
17450;BME280;8842;51.244;7.102;2022-09-09T06:34:21;98696.21;;;15.74;100.00
17450;BME280;8842;51.244;7.102;2022-09-09T06:39:26;98697.06;;;15.75;100.00
17450;BME280;8842;51.244;7.102;2022-09-09T06:49:44;98694.03;;;15.90;100.00
17450;BME280;8842;51.244;7.102;2022-09-09T07:05:24;98704.91;;;15.80;100.00
17450;BME280;8842;51.244;7.102;2022-09-09T07:15:42;98709.09;;;15.99;100.00
17450;BME280;8842;51.244;7.102;2022-09-09T07:26:08;98718.87;;;16.31;100.00
17450;BME280;8842;51.244;7.102;2022-09-09T07:36:26;98727.67;;;16.67;100.00
17450;BME280;8842;51.244;7.102;2022-09-09T07:41:32;98737.53;;;16.71;100.00
17450;BME280;8842;51.244;7.102;2022-09-09T07:51:52;98735.67;;;16.79;100.00
17450;BME280;8842;51.244;7.102;2022-09-09T08:02:09;98736.46;;;16.88;100.00
17450;BME280;8842;51.244;7.102;2022-09-09T08:12:27;98738.88;;;17.05;100.00
17450;BME280;8842;51.244;7.102;2022-09-09T08:22:42;98744.39;;;17.34;100.00
17450;BME280;8842;51.244;7.102;2022-09-09T08:33:01;98740.17;;;17.85;100.00
17450;BME280;8842;51.244;7.102;2022-09-09T08:43:17;98739.03;;;18.02;100.00
17450;BME280;8842;51.244;7.102;2022-09-09T08:53:52;98741.60;;;17.96;100.00
17450;BME280;8842;51.244;7.102;2022-09-09T09:04:19;98756.29;;;17.89;100.00
17450;BME280;8842;51.244;7.102;2022-09-09T09:14:39;98755.91;;;18.11;100.00
17450;BME280;8842;51.244;7.102;2022-09-09T09:24:59;98757.98;;;18.05;100.00
17450;BME280;8842;51.244;7.102;2022-09-09T09:35:17;98755.56;;;17.95;100.00
17450;BME280;8842;51.244;7.102;2022-09-09T09:40:23;98761.78;;;18.10;100.00
17450;BME280;8842;51.244;7.102;2022-09-09T09:45:32;98755.74;;;18.27;100.00
17450;BME280;8842;51.244;7.102;2022-09-09T09:50:35;98753.48;;;18.34;100.00
17450;BME280;8842;51.244;7.102;2022-09-09T10:00:53;98752.28;;;18.41;100.00
17450;BME280;8842;51.244;7.102;2022-09-09T10:16:44;98758.53;;;18.52;100.00
17450;BME280;8842;51.244;7.102;2022-09-09T10:27:10;98750.02;;;19.02;92.81
17450;BME280;8842;51.244;7.102;2022-09-09T10:37:46;98747.17;;;19.50;91.05
17450;BME280;8842;51.244;7.102;2022-09-09T10:42:51;98743.98;;;19.25;97.06
17450;BME280;8842;51.244;7.102;2022-09-09T10:53:13;98724.59;;;19.61;98.75
17450;BME280;8842;51.244;7.102;2022-09-09T11:03:33;98724.97;;;19.79;97.10
17450;BME280;8842;51.244;7.102;2022-09-09T11:19:10;98718.97;;;19.67;96.49
17450;BME280;8842;51.244;7.102;2022-09-09T11:40:23;98709.66;;;19.69;96.23
17450;BME280;8842;51.244;7.102;2022-09-09T11:50:42;98713.63;;;19.52;94.49
17450;BME280;8842;51.244;7.102;2022-09-09T12:01:00;98719.00;;;18.96;100.00
17450;BME280;8842;51.244;7.102;2022-09-09T12:11:28;98729.39;;;18.84;100.00
17450;BME280;8842;51.244;7.102;2022-09-09T12:21:54;98725.41;;;19.05;100.00
17450;BME280;8842;51.244;7.102;2022-09-09T12:32:17;98718.78;;;18.87;100.00
17450;BME280;8842;51.244;7.102;2022-09-09T12:37:26;98719.45;;;18.60;100.00
17450;BME280;8842;51.244;7.102;2022-09-09T12:47:46;98723.79;;;18.13;100.00
17450;BME280;8842;51.244;7.102;2022-09-09T12:58:06;98716.81;;;18.23;100.00
17450;BME280;8842;51.244;7.102;2022-09-09T13:08:26;98705.95;;;18.16;100.00
17450;BME280;8842;51.244;7.102;2022-09-09T13:18:47;98698.37;;;18.34;100.00
17450;BME280;8842;51.244;7.102;2022-09-09T13:29:16;98749.39;;;17.91;100.00
17450;BME280;8842;51.244;7.102;2022-09-09T13:39:39;98720.85;;;17.48;100.00
17450;BME280;8842;51.244;7.102;2022-09-09T13:49:55;98726.05;;;17.68;100.00
17450;BME280;8842;51.244;7.102;2022-09-09T14:00:14;98720.33;;;17.90;100.00
17450;BME280;8842;51.244;7.102;2022-09-09T14:10:30;98689.95;;;18.04;100.00
17450;BME280;8842;51.244;7.102;2022-09-09T14:20:48;98678.01;;;17.92;100.00
17450;BME280;8842;51.244;7.102;2022-09-09T14:31:05;98684.67;;;17.96;100.00
17450;BME280;8842;51.244;7.102;2022-09-09T14:41:29;98683.52;;;17.95;100.00
17450;BME280;8842;51.244;7.102;2022-09-09T14:46:33;98687.27;;;18.04;100.00
17450;BME280;8842;51.244;7.102;2022-09-09T14:56:51;98666.28;;;17.89;100.00
17450;BME280;8842;51.244;7.102;2022-09-09T15:07:09;98673.56;;;17.17;100.00
17450;BME280;8842;51.244;7.102;2022-09-09T15:12:14;98697.15;;;17.03;100.00
17450;BME280;8842;51.244;7.102;2022-09-09T15:17:18;98723.98;;;16.99;100.00
17450;BME280;8842;51.244;7.102;2022-09-09T15:22:24;98773.11;;;16.99;100.00
17450;BME280;8842;51.244;7.102;2022-09-09T15:32:42;98750.38;;;16.29;100.00
17450;BME280;8842;51.244;7.102;2022-09-09T15:43:00;98750.27;;;15.90;100.00
17450;BME280;8842;51.244;7.102;2022-09-09T15:53:20;98728.69;;;15.79;100.00
17450;BME280;8842;51.244;7.102;2022-09-09T16:03:42;98727.98;;;16.02;100.00
17450;BME280;8842;51.244;7.102;2022-09-09T16:19:13;98735.53;;;15.94;100.00
17450;BME280;8842;51.244;7.102;2022-09-09T16:29:31;98736.87;;;15.94;100.00
17450;BME280;8842;51.244;7.102;2022-09-09T16:39:55;98734.84;;;16.12;100.00
17450;BME280;8842;51.244;7.102;2022-09-09T16:44:59;98732.82;;;16.10;100.00
17450;BME280;8842;51.244;7.102;2022-09-09T16:55:17;98746.19;;;16.30;100.00
17450;BME280;8842;51.244;7.102;2022-09-09T17:05:40;98746.17;;;16.34;100.00
17450;BME280;8842;51.244;7.102;2022-09-09T17:10:44;98747.83;;;16.55;100.00
17450;BME280;8842;51.244;7.102;2022-09-09T17:21:04;98752.21;;;16.48;100.00
17450;BME280;8842;51.244;7.102;2022-09-09T17:31:21;98761.23;;;16.55;100.00
17450;BME280;8842;51.244;7.102;2022-09-09T17:41:39;98760.21;;;16.56;100.00
17450;BME280;8842;51.244;7.102;2022-09-09T17:46:43;98760.53;;;16.57;100.00
17450;BME280;8842;51.244;7.102;2022-09-09T17:57:02;98754.05;;;16.48;100.00
17450;BME280;8842;51.244;7.102;2022-09-09T18:07:17;98758.91;;;16.28;100.00
17450;BME280;8842;51.244;7.102;2022-09-09T18:17:33;98777.19;;;16.09;100.00
17450;BME280;8842;51.244;7.102;2022-09-09T18:27:51;98787.58;;;15.99;100.00
17450;BME280;8842;51.244;7.102;2022-09-09T18:38:11;98787.41;;;15.89;100.00
17450;BME280;8842;51.244;7.102;2022-09-09T18:48:28;98797.45;;;15.83;100.00
17450;BME280;8842;51.244;7.102;2022-09-09T18:58:46;98800.79;;;15.77;100.00
17450;BME280;8842;51.244;7.102;2022-09-09T19:09:11;98807.83;;;15.86;100.00
17450;BME280;8842;51.244;7.102;2022-09-09T19:19:28;98823.73;;;15.87;100.00
17450;BME280;8842;51.244;7.102;2022-09-09T19:29:52;98828.59;;;15.88;100.00
17450;BME280;8842;51.244;7.102;2022-09-09T19:40:10;98828.25;;;15.79;100.00
17450;BME280;8842;51.244;7.102;2022-09-09T19:45:14;98830.44;;;15.75;100.00
17450;BME280;8842;51.244;7.102;2022-09-09T19:55:29;98838.47;;;15.83;100.00
17450;BME280;8842;51.244;7.102;2022-09-09T20:05:45;98840.16;;;15.88;100.00
17450;BME280;8842;51.244;7.102;2022-09-09T20:10:52;98844.67;;;15.84;100.00
17450;BME280;8842;51.244;7.102;2022-09-09T20:16:01;98846.66;;;15.82;100.00
17450;BME280;8842;51.244;7.102;2022-09-09T20:26:19;98856.05;;;15.94;100.00
17450;BME280;8842;51.244;7.102;2022-09-09T20:36:37;98864.41;;;15.95;100.00
17450;BME280;8842;51.244;7.102;2022-09-09T20:41:43;98876.50;;;15.99;100.00
17450;BME280;8842;51.244;7.102;2022-09-09T20:46:49;98878.66;;;15.95;100.00
17450;BME280;8842;51.244;7.102;2022-09-09T20:51:55;98885.53;;;16.06;100.00
17450;BME280;8842;51.244;7.102;2022-09-09T21:02:12;98881.50;;;16.14;100.00
17450;BME280;8842;51.244;7.102;2022-09-09T21:12:30;98875.98;;;16.12;100.00
17450;BME280;8842;51.244;7.102;2022-09-09T21:22:48;98880.67;;;16.18;100.00
17450;BME280;8842;51.244;7.102;2022-09-09T21:33:05;98874.83;;;16.18;100.00
17450;BME280;8842;51.244;7.102;2022-09-09T21:43:28;98873.80;;;16.07;100.00
17450;BME280;8842;51.244;7.102;2022-09-09T21:53:44;98881.85;;;15.99;100.00
17450;BME280;8842;51.244;7.102;2022-09-09T22:04:05;98874.13;;;15.84;100.00
17450;BME280;8842;51.244;7.102;2022-09-09T22:09:09;98879.45;;;15.76;100.00
17450;BME280;8842;51.244;7.102;2022-09-09T22:19:27;98873.38;;;15.50;100.00
17450;BME280;8842;51.244;7.102;2022-09-09T22:29:45;98876.02;;;15.42;100.00
17450;BME280;8842;51.244;7.102;2022-09-09T22:40:03;98875.53;;;15.46;100.00
17450;BME280;8842;51.244;7.102;2022-09-09T22:45:09;98874.69;;;15.46;100.00
17450;BME280;8842;51.244;7.102;2022-09-09T22:55:29;98876.58;;;15.61;100.00
17450;BME280;8842;51.244;7.102;2022-09-09T23:05:53;98881.13;;;15.73;100.00
17450;BME280;8842;51.244;7.102;2022-09-09T23:11:02;98873.94;;;15.69;100.00
17450;BME280;8842;51.244;7.102;2022-09-09T23:21:23;98876.78;;;15.80;100.00
17450;BME280;8842;51.244;7.102;2022-09-09T23:31:41;98885.19;;;15.93;100.00
17450;BME280;8842;51.244;7.102;2022-09-09T23:42:00;98886.50;;;15.85;100.00
17450;BME280;8842;51.244;7.102;2022-09-09T23:47:06;98889.52;;;15.82;100.00
17450;BME280;8842;51.244;7.102;2022-09-09T23:52:10;98885.50;;;15.78;100.00
